HALF-HOURLY OBSERVATIONS INDEX

069

South Coast

BEGA AWS

Site: 069139
Alt: 41.0m
7km E of BEGA


  Time     Wind        Temp  DP   Baro     Rain since   Rain past  Vis(m), Cloud(base in m), Weather
  local        km/h                         9am  last   hr   10m    
Mon 11:00   NE  9/ 13  25.3 18.0  1016.3    0.0   0.0   0.0   0.0   ----- 
Mon 11:30    E  7/ 11  25.6 17.0  1016.2    0.0   0.0   0.0   0.0   ----- 
Mon 12:00  ENE 15/ 20  26.0 17.4  1016.1    0.0   0.0   0.0   0.0   ----- 
Mon 12:30  ESE 11/ 20  26.2 17.0  1016.0    0.0   0.0   0.0   0.0   ----- 
Mon 13:00  ESE 17/ 26  26.6 17.4  1015.9    0.0   0.0   0.0   0.0   ----- 
Mon 13:30  ESE 20/ 28  25.8 16.4  1016.1    0.0   0.0   0.0   0.0   ----- 
Mon 14:00  ESE 26/ 33  24.9 16.1  1016.2    0.0   0.0   0.0   0.0   ----- 
Mon 14:30  ESE 22/ 32  25.7 16.5  1016.1    0.0   0.0   0.0   0.0   ----- 
Mon 15:00    E 22/ 33  25.4 18.1  1016.1    0.0   0.0   0.0   0.0   ----- 
Mon 15:30    E 22/ 32  24.3 16.8  1016.4    0.0   0.0   0.0   0.0   ----- 
Mon 16:00  ENE 19/ 28  23.8 16.3  1016.5    0.0   0.0   0.0   0.0   ----- 
Mon 16:30    E 17/ 28  22.2 15.8  1016.6    0.0   0.0   0.0   0.0   ----- 

BELOWRA NPWS

Site: 069PW1
Alt: 180m
37km W of NAROOMA


  Time     Wind        Temp  DP   Baro     Rain since   Rain past  Vis(m), Cloud(base in m), Weather
  local        km/h                         9am  last   hr   10m    
Mon 11:00  ------/---  25.8 13.7  ------    0.0   0.0   0.0   0.0   ----- 
Mon 12:00  ------/---  27.0 14.4  ------    0.0   0.0   0.0   0.0   ----- 
Mon 13:00  ------/---  27.9 15.6  ------    0.0   0.0   0.0   0.0   ----- 
Mon 14:00  ------/---  28.1 15.8  ------    0.0   0.0   0.0   0.0   ----- 
Mon 15:00  ------/---  25.7 17.6  ------    0.0   0.0   0.0   0.0   ----- 
Mon 16:00  ------/---  23.1 15.6  ------    0.0   0.0   0.0   0.0   ----- 

BRAIDWOOD RACECOURSE AWS

Site: 069132
Alt: 665.2m
49km NW of BATEMANS BAY


  Time     Wind        Temp  DP   Baro     Rain since   Rain past  Vis(m), Cloud(base in m), Weather
  local        km/h                         9am  last   hr   10m    
Mon 11:00   SE  6/ 13  18.9 14.6  1019.0    0.0   0.0   0.0   0.0   -----|SC 510 
Mon 11:30  ESE  9/ 15  19.3 15.2  1019.0    0.0   0.0   0.0   0.0   -----|SC 510 
Mon 12:00  ESE  9/ 17  19.9 15.1  1018.7    0.0   0.0   0.0   0.0   ----- 
Mon 12:30  ESE  9/ 15  20.4 16.0  1018.6    0.0   0.0   0.0   0.0   -----|SC 540 
Mon 13:00    E 13/ 19  21.3 16.7  1018.6    0.0   0.0   0.0   0.0   -----|SC 540 
Mon 13:30    E 11/ 17  21.7 16.9  1018.5    0.0   0.0   0.0   0.0   -----|SC 600 
Mon 14:00    E  9/ 17  22.1 15.9  1018.4    0.0   0.0   0.0   0.0   ----- 
Mon 14:30  ESE 11/ 24  21.9 15.7  1018.2    0.0   0.0   0.0   0.0   -----|SC 750 
Mon 15:00  ESE 15/ 22  21.9 16.8  1018.2    0.0   0.0   0.0   0.0   -----|BR 750 
Mon 15:30  ESE 17/ 24  22.0 16.5  1018.1    0.0   0.0   0.0   0.0   -----|SC 750 
Mon 16:00    E 19/ 26  21.8 16.5  1018.2    0.0   0.0   0.0   0.0   -----|SC 690 
Mon 16:30  ESE 24/ 33  20.3 16.1  1018.2    0.0   0.0   0.0   0.0   -----|SC 570 

GREEN CAPE AWS

Site: 069137
Alt: 19.4m
66km SSE of BEGA


  Time     Wind        Temp  DP   Baro     Rain since   Rain past  Vis(m), Cloud(base in m), Weather
  local        km/h                         9am  last   hr   10m    
Mon 11:00  WSW 35/ 41  21.6 14.7  1016.5    0.0   0.0   0.0   0.0   ----- 
Mon 11:30   SW 30/ 35  22.4 15.7  1016.7    0.0   0.0   0.0   0.0   ----- 
Mon 12:00  WSW 32/ 39  22.4 15.3  1016.7    0.0   0.0   0.0   0.0   ----- 
Mon 12:30  SSW 43/ 50  22.6 15.4  1016.3    0.0   0.0   0.0   0.0   ----- 
Mon 13:00    S 43/ 50  22.4 17.3  1016.3    0.0   0.0   0.0   0.0   ----- 
Mon 13:30    S 50/ 58  21.4 16.6  1016.1    0.0   0.0   0.0   0.0   ----- 
Mon 14:00    S 54/ 63  21.1 16.5  1016.3    0.0   0.0   0.0   0.0   ----- 
Mon 14:30  SSW 54/ 65  20.9 15.7  1016.1    0.0   0.0   0.0   0.0   ----- 
Mon 15:00  SSW 56/ 61  20.7 15.3  1016.3    0.0   0.0   0.0   0.0   ----- 
Mon 15:30  SSW 50/ 56  20.8 15.4  1016.5    0.0   0.0   0.0   0.0   ----- 
Mon 16:00  SSW 50/ 59  20.8 15.4  1016.6    0.0   0.0   0.0   0.0   ----- 
Mon 16:30  SSW 48/ 54  20.4 14.7  1016.8    0.0   0.0   0.0   0.0   ----- 

MERIMBULA AIRPORT AWS

Site: 069147
Alt: 1.5m
25km S of BEGA


  Time     Wind        Temp  DP   Baro     Rain since   Rain past  Vis(m), Cloud(base in m), Weather
  local        km/h                         9am  last   hr   10m    
Mon 11:00  SSE  9/ 15  25.0 16.2  1016.2    0.0   0.0   0.0   0.0   10000 
Mon 11:30  SSW 13/ 19  25.7 15.7  1016.3    0.0   0.0   0.0   0.0   10000 
Mon 12:00  SSW 11/ 17  26.1 15.5  1016.1    0.0   0.0   0.0   0.0   10000 
Mon 12:30   SE 20/ 33  25.6 15.3  1015.9    0.0   0.0   0.0   0.0   10000 
Mon 13:00   SE 20/ 41  25.4 16.8  1015.8    0.0   0.0   0.0   0.0   10000 
Mon 13:30   SE 19/ 30  26.5 16.7  1015.9    0.0   0.0   0.0   0.0   10000|SC1680 
Mon 14:00   SE 24/ 39  26.0 15.7  1015.9    0.0   0.0   0.0   0.0   10000|SC1740 
Mon 14:30   SE 20/ 33  26.4 15.8  1015.6    0.0   0.0   0.0   0.0   10000 
Mon 15:00   SE 20/ 33  25.9 15.3  1015.6    0.0   0.0   0.0   0.0   10000 
Mon 15:30   SE 19/ 32  26.0 15.7  1015.8    0.0   0.0   0.0   0.0   10000|SC1590 
Mon 16:00  SSE 20/ 33  25.5 15.8  1016.1    0.0   0.0   0.0   0.0   10000 
Mon 16:30   SE 20/ 30  25.4 16.0  1016.3    0.0   0.0   0.0   0.0   10000 

MONTAGUE ISLAND LIGHTHOUSE

Site: 069017
Alt: 52.0m
56km NNE of BEGA


  Time     Wind        Temp  DP   Baro     Rain since   Rain past  Vis(m), Cloud(base in m), Weather
  local        km/h                         9am  last   hr   10m    
Mon 11:00    S 20/ 28  22.0 16.7  1016.7    0.0   0.0   0.0   0.0   ----- 
Mon 11:30    S 17/ 26  21.9 16.6  1016.6    0.0   0.0   0.0   0.0   ----- 
Mon 12:00  SSE 15/ 20  22.2 16.5  1016.6    0.0   0.0   0.0   0.0   ----- 
Mon 12:30  SSE 20/ 26  22.5 17.2  1016.6    0.0   0.0   0.0   0.0   ----- 
Mon 13:00  SSE 19/ 28  22.5 17.0  1016.6    0.0   0.0   0.0   0.0   ----- 
Mon 13:30   SE 17/ 22  22.7 17.2  1016.8    0.0   0.0   0.0   0.0   ----- 
Mon 14:00   SE 22/ 28  22.8 16.6  1016.8    0.0   0.0   0.0   0.0   ----- 
Mon 14:30   SE 24/ 28  22.4 16.0  1016.7    0.0   0.0   0.0   0.0   ----- 
Mon 15:00  SSE 22/ 32  22.4 16.2  1016.7    0.0   0.0   0.0   0.0   ----- 
Mon 15:30  SSE 28/ 39  21.6 17.0  1017.0    0.0   0.0   0.0   0.0   ----- 
Mon 16:00  SSE 32/ 39  20.8 17.0  1017.0    0.0   0.0   0.0   0.0   ----- 
Mon 16:30  SSE 33/ 43  20.8 16.6  1016.9    0.0   0.0   0.0   0.0   ----- 

MORUYA AIRPORT AWS

Site: 069148
Alt: 4.0m
21km S of BATEMANS BAY


  Time     Wind        Temp  DP   Baro     Rain since   Rain past  Vis(m), Cloud(base in m), Weather
  local        km/h                         9am  last   hr   10m    
Mon 11:00   SE 19/ 22  23.6 16.9  1016.9    0.0   0.0   0.0   0.0   10000|SC 840 
Mon 11:30   SE 19/ 24  23.3 17.1  1017.1    0.0   0.0   0.0   0.0   10000|BR 900 
Mon 12:00   SE 19/ 24  22.8 16.1  1017.1    0.0   0.0   0.0   0.0   10000|OC 960 
Mon 12:30  ESE 17/ 20  23.5 17.3  1016.9    0.0   0.0   0.0   0.0   10000|OC1020 
Mon 13:00  ESE 17/ 24  23.0 16.1  1017.0    0.0   0.0   0.0   0.0   10000 
Mon 13:30  ESE 17/ 24  23.8 16.8  1017.1    0.0   0.0   0.0   0.0   10000 
Mon 14:00  ESE 19/ 24  23.8 16.8  1017.1    0.0   0.0   0.0   0.0   10000 
Mon 14:30  ESE 19/ 24  23.7 16.5  1017.0    0.0   0.0   0.0   0.0   10000|SC1110 
Mon 15:00  ESE 17/ 22  23.7 16.2  1017.1    0.0   0.0   0.0   0.0   10000|BR1110 
Mon 15:30  ESE 17/ 22  23.0 16.1  1017.3    0.0   0.0   0.0   0.0   10000|OC1170 
Mon 16:00   SE 17/ 24  23.3 15.9  1017.3    0.0   0.0   0.0   0.0   10000|OC1290 
Mon 16:30   SE 17/ 24  22.8 16.6  1017.4    0.0   0.0   0.0   0.0   10000|SC 780 OC1350 

NERRIGA AWS

Site: 069128
Alt: 622.0m
km of


  Time     Wind        Temp  DP   Baro     Rain since   Rain past  Vis(m), Cloud(base in m), Weather
  local        km/h                         9am  last   hr   10m    
Mon 11:00  SSE 11/ 19  19.6 16.4  1018.4    0.0   0.0   0.0   0.0   ----- 
Mon 11:30  SSE 11/ 15  20.4 16.8  1018.4    0.0   0.0   0.0   0.0   ----- 
Mon 12:00  ESE  9/ 17  21.9 17.9  1018.4    0.0   0.0   0.0   0.0   ----- 
Mon 12:30  ESE  9/ 13  22.8 17.5  1018.2    0.0   0.0   0.0   0.0   ----- 
Mon 13:00    E 11/ 17  23.1 17.6  1018.2    0.0   0.0   0.0   0.0   ----- 
Mon 13:30   SE 15/ 24  22.7 17.2  1018.2    0.0   0.0   0.0   0.0   ----- 
Mon 14:00  ESE 15/ 20  22.2 17.3  1018.2    0.0   0.0   0.0   0.0   ----- 
Mon 14:30    E 13/ 20  22.5 17.0  1018.1    0.0   0.0   0.0   0.0   ----- 
Mon 15:00  ESE 19/ 22  22.4 17.1  1018.0    0.0   0.0   0.0   0.0   ----- 
Mon 15:30  ESE 20/ 26  21.5 16.2  1018.0    0.0   0.0   0.0   0.0   ----- 
Mon 16:00  ESE 20/ 28  21.1 16.5  1017.8    0.0   0.0   0.0   0.0   ----- 
Mon 16:30    E 24/ 32  19.0 16.0  1018.1    0.0   0.0   0.0   0.0   ----- 

ULLADULLA AWS

Site: 069138
Alt: 35.7m
47km NE of BATEMANS BAY


  Time     Wind        Temp  DP   Baro     Rain since   Rain past  Vis(m), Cloud(base in m), Weather
  local        km/h                         9am  last   hr   10m    
Mon 11:00   SW 19/ 30  22.0 18.2  1016.5    0.0   0.0   0.0   0.0   ----- 
Mon 11:30  SSW 24/ 32  21.8 19.2  1016.8    0.0   0.0   0.0   0.0   ----- 
Mon 12:00    S 22/ 32  21.7 18.7  1016.7    0.0   0.0   0.0   0.0   ----- 
Mon 12:30    S 22/ 32  21.7 18.5  1016.7    0.0   0.0   0.0   0.0   ----- 
Mon 13:00    S 20/ 26  21.7 18.7  1016.8    0.0   0.0   0.0   0.0   ----- 
Mon 13:30    S 19/ 28  21.5 18.3  1017.1    0.0   0.0   0.0   0.0   ----- 
Mon 14:00    S 20/ 30  21.5 18.1  1017.0    0.0   0.0   0.0   0.0   ----- 
Mon 14:30    S 17/ 24  21.8 18.2  1017.0    0.0   0.0   0.0   0.0   ----- 
Mon 15:00    S 15/ 22  21.7 18.1  1017.1    0.0   0.0   0.0   0.0   ----- 
Mon 15:30    S 15/ 22  21.7 18.5  1017.1    0.0   0.0   0.0   0.0   ----- 
Mon 16:00    S 17/ 26  21.7 17.5  1017.1    0.0   0.0   0.0   0.0   ----- 
Mon 16:30    S 19/ 26  21.5 17.5  1017.1    0.0   0.0   0.0   0.0   -----